Time;durP1;ratioP1;P1;durP2;ratioP2;P2;SDS_P1;SDS_P2;PMS_P1;PMS_P2;Temp;Humidity;BMP_temperature;BMP_pressure;BME280_temperature;BME280_humidity;BME280_pressure;Samples;Min_cycle;Max_cycle;Signal;HPM_P1;HPM_P2
2022/02/27 00:00:33;;;;;;;55.03;20.80;;;;;;;4.82;65.81;103343.09;4776236;29;20550;-53
2022/02/27 00:02:59;;;;;;;56.30;20.88;;;;;;;4.80;65.91;103344.66;4770842;29;20050;-53
2022/02/27 00:05:25;;;;;;;59.25;21.13;;;;;;;4.79;66.06;103343.78;4785813;29;20055;-52
2022/02/27 00:07:50;;;;;;;52.45;20.65;;;;;;;4.76;66.07;103348.69;4768890;29;20039;-52
2022/02/27 00:10:15;;;;;;;53.97;20.25;;;;;;;4.79;66.07;103350.63;4772621;29;20434;-52
2022/02/27 00:12:41;;;;;;;55.30;20.83;;;;;;;4.70;66.02;103353.38;4777904;29;20055;-51
2022/02/27 00:15:06;;;;;;;56.22;19.88;;;;;;;4.80;66.32;103350.75;4762398;29;20140;-54
2022/02/27 00:17:35;;;;;;;56.95;20.35;;;;;;;4.69;65.79;103348.13;4766641;29;20042;-54
2022/02/27 00:20:01;;;;;;;55.40;19.90;;;;;;;4.62;66.32;103351.94;4778760;29;20050;-51
2022/02/27 00:22:26;;;;;;;54.03;20.30;;;;;;;4.65;66.37;103346.97;4775254;29;20613;-52
2022/02/27 00:24:51;;;;;;;51.35;19.65;;;;;;;4.61;66.52;103359.56;4784716;29;20556;-51
2022/02/27 00:27:17;;;;;;;57.80;20.60;;;;;;;4.53;66.76;103351.19;4770531;29;20046;-53
2022/02/27 00:29:42;;;;;;;55.17;20.33;;;;;;;4.53;67.12;103350.31;4764584;29;20085;-51
2022/02/27 00:32:08;;;;;;;56.90;20.25;;;;;;;4.56;67.20;103351.44;4775777;29;20055;-54
2022/02/27 00:34:33;;;;;;;51.40;19.55;;;;;;;4.57;66.35;103342.94;4774433;29;20453;-54
2022/02/27 00:36:58;;;;;;;54.20;19.45;;;;;;;4.55;66.80;103338.41;4765237;29;20062;-59
2022/02/27 00:39:24;;;;;;;54.85;20.25;;;;;;;4.56;67.24;103350.56;4777984;29;20472;-54
2022/02/27 00:41:49;;;;;;;50.38;19.50;;;;;;;4.59;66.22;103346.50;4778790;29;20142;-53
2022/02/27 00:44:15;;;;;;;52.33;19.30;;;;;;;4.64;66.36;103340.00;4770237;29;20039;-52
2022/02/27 00:46:40;;;;;;;55.90;19.00;;;;;;;4.70;66.30;103345.63;4777746;29;20055;-52
2022/02/27 00:49:06;;;;;;;50.45;19.15;;;;;;;4.67;66.19;103340.25;4771571;29;20043;-54
2022/02/27 00:51:32;;;;;;;52.75;19.05;;;;;;;4.60;66.17;103339.66;4776144;29;20055;-53
2022/02/27 00:53:57;;;;;;;48.75;18.73;;;;;;;4.60;66.57;103350.00;4777558;29;20476;-53
2022/02/27 00:56:23;;;;;;;48.63;18.40;;;;;;;4.62;66.13;103343.28;4778868;29;20059;-53
2022/02/27 00:58:50;;;;;;;49.53;18.20;;;;;;;4.60;66.31;103339.66;4776142;29;20039;-52
2022/02/27 01:01:20;;;;;;;56.33;19.65;;;;;;;4.63;65.41;103345.97;4765763;29;20043;-52
2022/02/27 01:03:46;;;;;;;50.17;18.10;;;;;;;4.55;65.77;103339.31;4786543;29;20054;-54
2022/02/27 01:06:12;;;;;;;49.53;18.63;;;;;;;4.45;66.51;103340.28;4777803;29;20074;-51
2022/02/27 01:08:37;;;;;;;48.28;17.45;;;;;;;4.49;65.83;103329.41;4771630;29;20061;-51
2022/02/27 01:11:03;;;;;;;50.72;18.67;;;;;;;4.54;65.99;103336.59;4769979;29;20051;-50
2022/02/27 01:13:28;;;;;;;52.35;18.67;;;;;;;4.54;66.54;103339.19;4777152;29;20427;-52
2022/02/27 01:15:54;;;;;;;51.55;18.20;;;;;;;4.47;65.90;103337.81;4771288;29;20046;-51
2022/02/27 01:18:19;;;;;;;47.92;18.58;;;;;;;4.43;66.47;103331.53;4778865;29;20077;-54
2022/02/27 01:20:44;;;;;;;50.95;18.38;;;;;;;4.52;66.39;103327.81;4775214;29;20658;-51
2022/02/27 01:23:10;;;;;;;50.88;17.27;;;;;;;4.50;66.41;103327.75;4772615;29;20483;-52
2022/02/27 01:25:36;;;;;;;46.83;18.00;;;;;;;4.47;65.80;103318.06;4779625;29;20517;-52
2022/02/27 01:28:01;;;;;;;48.10;17.77;;;;;;;4.54;65.86;103314.25;4775279;29;20713;-56
2022/02/27 01:30:27;;;;;;;44.47;17.40;;;;;;;4.55;65.17;103317.75;4776284;29;20046;-50
2022/02/27 01:32:52;;;;;;;48.90;17.60;;;;;;;4.57;65.41;103322.25;4775957;29;20107;-51
2022/02/27 01:35:18;;;;;;;47.17;17.20;;;;;;;4.52;65.91;103317.50;4771291;29;20114;-53
2022/02/27 01:37:43;;;;;;;47.75;17.92;;;;;;;4.47;65.79;103320.63;4776069;29;20042;-51
2022/02/27 01:40:09;;;;;;;43.13;16.65;;;;;;;4.46;65.35;103318.84;4776161;29;20060;-53
2022/02/27 01:42:35;;;;;;;43.35;17.63;;;;;;;4.31;66.25;103314.19;4776769;29;20047;-52
2022/02/27 01:45:04;;;;;;;48.15;17.52;;;;;;;4.22;65.63;103319.53;4769804;29;20053;-59
2022/02/27 01:47:30;;;;;;;43.03;16.08;;;;;;;4.36;65.60;103320.59;4777115;29;20126;-54
2022/02/27 01:49:55;;;;;;;43.50;17.48;;;;;;;4.34;65.71;103324.72;4787758;29;20126;-54
2022/02/27 01:52:21;;;;;;;44.17;16.45;;;;;;;4.33;65.82;103323.81;4778050;29;20111;-53
2022/02/27 01:54:46;;;;;;;45.13;16.55;;;;;;;4.26;66.68;103326.75;4775751;29;20944;-50
2022/02/27 01:57:12;;;;;;;38.58;16.05;;;;;;;4.31;66.27;103324.50;4765306;29;20042;-54
2022/02/27 01:59:39;;;;;;;49.25;17.15;;;;;;;4.37;65.46;103327.56;4777249;29;20121;-52
2022/02/27 02:02:05;;;;;;;44.72;16.85;;;;;;;4.28;65.41;103329.41;4766746;29;20544;-54
2022/02/27 02:04:31;;;;;;;42.50;16.05;;;;;;;4.21;66.30;103330.63;4777835;29;20043;-56
2022/02/27 02:06:57;;;;;;;36.85;15.65;;;;;;;4.32;65.78;103316.00;4772964;29;20487;-55
2022/02/27 02:09:23;;;;;;;43.38;16.25;;;;;;;4.37;65.25;103314.66;4772837;29;20062;-53
2022/02/27 02:11:48;;;;;;;42.13;15.57;;;;;;;4.27;65.49;103325.06;4776920;29;20047;-56
2022/02/27 02:14:14;;;;;;;38.28;16.60;;;;;;;4.23;65.58;103323.00;4775395;29;20059;-51
2022/02/27 02:16:45;;;;;;;40.72;15.93;;;;;;;4.26;65.94;103324.16;4774269;29;21315;-51
2022/02/27 02:19:11;;;;;;;42.45;15.80;;;;;;;4.30;65.52;103310.69;4770013;29;20050;-54
2022/02/27 02:21:41;;;;;;;41.85;15.57;;;;;;;4.26;65.41;103323.25;4765897;29;20499;-54
2022/02/27 02:24:08;;;;;;;37.58;15.27;;;;;;;4.16;65.75;103325.88;4777417;29;20050;-51
2022/02/27 02:26:36;;;;;;;41.53;15.75;;;;;;;4.20;65.76;103315.94;4772661;29;20136;-53
2022/02/27 02:29:03;;;;;;;35.47;15.18;;;;;;;4.15;66.08;103318.94;4770972;29;20051;-59
2022/02/27 02:31:28;;;;;;;40.42;15.35;;;;;;;4.09;66.10;103316.75;4771186;29;20516;-56
2022/02/27 02:33:54;;;;;;;38.45;16.27;;;;;;;4.06;66.09;103316.53;4773116;29;20059;-54
2022/02/27 02:36:19;;;;;;;40.25;15.85;;;;;;;4.02;66.05;103312.81;4777972;29;20451;-54
2022/02/27 02:38:44;;;;;;;43.58;16.05;;;;;;;4.05;66.47;103313.06;4774243;29;20105;-55
2022/02/27 02:41:10;;;;;;;42.20;15.70;;;;;;;4.02;66.76;103314.50;4771310;29;20494;-52
2022/02/27 02:43:35;;;;;;;41.83;15.48;;;;;;;4.02;65.85;103307.66;4774577;29;20408;-54
2022/02/27 02:46:01;;;;;;;40.58;15.63;;;;;;;4.00;65.92;103311.78;4776515;29;20109;-58
2022/02/27 02:48:26;;;;;;;39.85;15.50;;;;;;;3.99;66.33;103303.91;4778235;29;20506;-54
2022/02/27 02:50:51;;;;;;;34.53;14.63;;;;;;;3.99;66.32;103296.19;4771779;29;20492;-52
2022/02/27 02:53:17;;;;;;;41.95;15.75;;;;;;;3.91;66.10;103297.25;4768084;29;20055;-54
2022/02/27 02:55:42;;;;;;;37.80;15.48;;;;;;;3.91;66.72;103298.16;4771577;29;20065;-52
2022/02/27 02:58:08;;;;;;;38.28;15.00;;;;;;;3.88;66.83;103300.50;4770009;29;20549;-51
2022/02/27 03:00:34;;;;;;;40.53;15.13;;;;;;;3.99;66.06;103293.59;4773222;29;20054;-54
2022/02/27 03:02:59;;;;;;;37.50;14.70;;;;;;;4.03;66.38;103295.63;4769257;29;20123;-53
2022/02/27 03:05:24;;;;;;;37.45;14.25;;;;;;;4.05;65.20;103291.50;4774973;29;20884;-54
2022/02/27 03:07:50;;;;;;;38.95;15.05;;;;;;;3.99;66.29;103291.03;4766098;29;20058;-50
2022/02/27 03:10:15;;;;;;;46.10;15.18;;;;;;;3.98;65.76;103291.78;4774906;29;20499;-54
2022/02/27 03:12:40;;;;;;;35.25;14.60;;;;;;;3.99;65.75;103284.19;4772601;29;20059;-53
2022/02/27 03:15:07;;;;;;;40.88;15.52;;;;;;;3.88;66.27;103285.03;4768069;29;20831;-53
2022/02/27 03:17:33;;;;;;;36.63;15.30;;;;;;;3.90;65.94;103282.56;4772666;29;20065;-52
2022/02/27 03:19:58;;;;;;;32.28;15.10;;;;;;;4.00;65.49;103279.91;4775107;29;20046;-51
2022/02/27 03:22:28;;;;;;;39.55;14.48;;;;;;;4.01;66.20;103279.16;4774866;29;20054;-54
2022/02/27 03:24:53;;;;;;;37.47;14.82;;;;;;;3.97;65.34;103279.66;4772073;29;20050;-53
2022/02/27 03:27:19;;;;;;;38.13;14.27;;;;;;;3.97;65.52;103272.81;4769997;29;20104;-51
2022/02/27 03:29:44;;;;;;;38.25;14.35;;;;;;;3.96;65.43;103265.88;4774212;29;20457;-52
2022/02/27 03:32:10;;;;;;;39.08;14.35;;;;;;;3.88;65.12;103271.22;4774728;29;20054;-51
2022/02/27 03:34:35;;;;;;;32.53;14.48;;;;;;;3.96;65.98;103270.16;4776464;29;20801;-54
2022/02/27 03:37:00;;;;;;;37.22;14.48;;;;;;;3.86;66.20;103270.19;4758543;29;20516;-55
2022/02/27 03:39:26;;;;;;;31.65;13.85;;;;;;;3.97;65.27;103274.50;4777455;29;20092;-50
2022/02/27 03:41:51;;;;;;;36.83;13.90;;;;;;;4.04;65.25;103269.03;4765791;29;20051;-50
2022/02/27 03:44:16;;;;;;;30.17;12.88;;;;;;;3.96;64.85;103270.16;4766350;29;20062;-50
2022/02/27 03:46:42;;;;;;;36.67;13.75;;;;;;;3.89;65.19;103273.94;4779091;29;20069;-54
2022/02/27 03:49:07;;;;;;;34.13;13.13;;;;;;;3.89;65.25;103273.94;4764918;29;20051;-51
2022/02/27 03:51:37;;;;;;;28.90;12.63;;;;;;;3.94;64.79;103274.28;4773004;29;20272;-54
2022/02/27 03:54:04;;;;;;;33.63;13.32;;;;;;;3.94;65.58;103274.28;4772065;29;20517;-54
2022/02/27 03:56:29;;;;;;;32.75;13.05;;;;;;;3.86;65.50;103271.09;4775752;29;20073;-51
2022/02/27 03:58:55;;;;;;;37.05;12.95;;;;;;;3.80;64.93;103275.78;4774112;29;20560;-53
2022/02/27 04:01:21;;;;;;;34.55;13.30;;;;;;;3.82;64.91;103275.91;4766418;29;22402;-53
2022/02/27 04:03:46;;;;;;;33.33;13.32;;;;;;;3.82;64.82;103284.53;4775411;29;20054;-52
2022/02/27 04:06:12;;;;;;;33.15;13.48;;;;;;;3.85;65.09;103283.88;4766088;29;20439;-51
2022/02/27 04:08:38;;;;;;;36.17;13.18;;;;;;;3.83;65.71;103281.19;4773509;29;20062;-54
2022/02/27 04:11:04;;;;;;;31.63;13.40;;;;;;;3.78;64.93;103284.19;4768536;29;20862;-51
2022/02/27 04:13:29;;;;;;;35.10;13.38;;;;;;;3.86;64.80;103273.66;4773288;29;20055;-52
2022/02/27 04:15:54;;;;;;;28.67;13.15;;;;;;;3.85;65.08;103271.88;4763838;29;20129;-54
2022/02/27 04:18:20;;;;;;;37.85;13.80;;;;;;;3.82;64.74;103278.47;4772153;29;20475;-50
2022/02/27 04:20:45;;;;;;;26.52;12.82;;;;;;;3.81;64.79;103269.84;4770433;29;20047;-52
2022/02/27 04:23:10;;;;;;;27.33;12.88;;;;;;;3.84;65.70;103275.22;4766632;29;20050;-53
2022/02/27 04:25:36;;;;;;;34.08;12.82;;;;;;;3.87;64.61;103267.75;4776084;29;20511;-53
2022/02/27 04:28:01;;;;;;;38.10;13.13;;;;;;;3.93;64.64;103252.72;4776081;29;20053;-51
2022/02/27 04:30:26;;;;;;;28.75;12.70;;;;;;;3.95;65.29;103263.19;4768122;29;20058;-52
2022/02/27 04:32:52;;;;;;;31.17;12.93;;;;;;;3.86;64.83;103268.50;4765883;29;20059;-53
2022/02/27 04:35:17;;;;;;;29.38;12.65;;;;;;;3.98;64.75;103265.97;4764228;29;20759;-51
2022/02/27 04:37:43;;;;;;;25.38;12.60;;;;;;;3.89;64.77;103268.78;4775268;29;20141;-54
2022/02/27 04:40:09;;;;;;;27.30;12.73;;;;;;;3.96;64.70;103277.88;4770938;29;20047;-54
2022/02/27 04:42:34;;;;;;;31.15;12.98;;;;;;;3.90;63.85;103273.16;4770365;29;20134;-54
2022/02/27 04:45:00;;;;;;;32.28;13.40;;;;;;;3.75;65.34;103274.50;4771859;29;20105;-51
2022/02/27 04:47:25;;;;;;;28.65;12.50;;;;;;;3.88;64.80;103271.22;4766914;29;20043;-52
2022/02/27 04:49:51;;;;;;;29.38;13.05;;;;;;;4.03;64.40;103269.81;4774642;29;20058;-52
2022/02/27 04:52:17;;;;;;;29.13;13.35;;;;;;;3.93;64.61;103269.91;4771842;29;20051;-54
2022/02/27 04:54:43;;;;;;;30.48;13.32;;;;;;;3.85;64.46;103273.53;4771727;29;20055;-52
2022/02/27 04:57:08;;;;;;;29.20;12.73;;;;;;;3.86;65.11;103277.94;4766722;29;20635;-54
2022/02/27 04:59:34;;;;;;;35.33;13.18;;;;;;;4.00;64.29;103264.44;4776351;29;20668;-51
2022/02/27 05:01:59;;;;;;;28.08;13.10;;;;;;;4.07;63.82;103271.88;4777763;29;20376;-54
2022/02/27 05:04:24;;;;;;;30.80;13.90;;;;;;;3.89;63.89;103270.44;4773810;29;20734;-55
2022/02/27 05:06:50;;;;;;;28.55;13.05;;;;;;;3.71;64.69;103267.31;4776894;29;20050;-50
2022/02/27 05:09:17;;;;;;;28.15;12.95;;;;;;;3.85;63.96;103278.69;4773815;29;20050;-53
2022/02/27 05:11:44;;;;;;;30.50;13.23;;;;;;;3.85;63.79;103265.81;4771584;29;20371;-50
2022/02/27 05:14:10;;;;;;;27.83;13.27;;;;;;;3.92;63.79;103263.81;4779918;29;20463;-53
2022/02/27 05:16:36;;;;;;;28.58;13.23;;;;;;;3.80;64.69;103260.28;4772045;29;20766;-50
2022/02/27 05:19:01;;;;;;;29.65;13.10;;;;;;;3.76;64.45;103253.09;4769564;29;20123;-54
2022/02/27 05:21:27;;;;;;;29.42;13.43;;;;;;;3.76;64.66;103250.53;4777686;29;20046;-54
2022/02/27 05:23:52;;;;;;;31.08;13.80;;;;;;;3.68;64.64;103249.91;4776034;29;20049;-51
2022/02/27 05:26:17;;;;;;;26.52;13.40;;;;;;;3.65;65.01;103239.38;4768664;29;20104;-52
2022/02/27 05:28:43;;;;;;;28.38;13.93;;;;;;;3.56;65.59;103245.47;4771680;29;20140;-51
2022/02/27 05:31:09;;;;;;;30.38;13.82;;;;;;;3.56;65.09;103237.72;4767226;29;20046;-53
2022/02/27 05:33:34;;;;;;;30.23;13.98;;;;;;;3.64;64.67;103237.56;4773190;29;20108;-51
2022/02/27 05:35:59;;;;;;;32.45;14.05;;;;;;;3.66;64.11;103241.13;4777457;29;20452;-52
2022/02/27 05:38:25;;;;;;;31.80;13.85;;;;;;;3.62;64.76;103235.63;4778223;29;20513;-52
2022/02/27 05:40:50;;;;;;;28.45;13.70;;;;;;;3.66;64.36;103228.25;4775234;29;20074;-50
2022/02/27 05:43:16;;;;;;;32.55;13.55;;;;;;;3.64;64.36;103234.97;4770823;29;20058;-53
2022/02/27 05:45:41;;;;;;;28.02;13.52;;;;;;;3.64;65.08;103234.06;4774796;29;20097;-50
2022/02/27 05:48:06;;;;;;;26.73;13.50;;;;;;;3.83;64.57;103227.00;4785844;29;20223;-54
2022/02/27 05:50:32;;;;;;;30.15;13.02;;;;;;;3.71;64.70;103231.22;4776399;29;20084;-55
2022/02/27 05:52:57;;;;;;;34.80;13.88;;;;;;;3.85;63.87;103224.50;4772306;29;20047;-52
2022/02/27 05:55:22;;;;;;;30.05;13.00;;;;;;;3.86;63.76;103236.63;4772160;29;20050;-51
2022/02/27 05:57:48;;;;;;;28.17;12.95;;;;;;;3.70;64.76;103243.97;4774384;29;20051;-56
2022/02/27 06:00:13;;;;;;;30.30;13.00;;;;;;;3.68;64.53;103247.31;4776175;29;20050;-54
2022/02/27 06:02:39;;;;;;;27.48;12.68;;;;;;;3.53;64.82;103246.13;4778024;29;20199;-53
2022/02/27 06:05:06;;;;;;;27.90;12.90;;;;;;;3.59;65.31;103256.94;4765738;29;20054;-53
2022/02/27 06:07:31;;;;;;;31.70;13.02;;;;;;;3.59;65.25;103250.88;4777266;29;20059;-52
2022/02/27 06:09:56;;;;;;;29.88;12.45;;;;;;;3.77;64.52;103256.59;4772830;29;20050;-52
2022/02/27 06:12:22;;;;;;;24.55;12.60;;;;;;;3.60;65.30;103258.72;4777234;29;20081;-54
2022/02/27 06:14:47;;;;;;;27.58;12.07;;;;;;;3.55;64.78;103254.88;4780876;29;20507;-54
2022/02/27 06:17:12;;;;;;;29.40;13.00;;;;;;;3.68;64.42;103256.75;4766684;29;20091;-54
2022/02/27 06:19:38;;;;;;;29.23;12.48;;;;;;;3.86;64.17;103259.88;4778274;29;20129;-55
2022/02/27 06:22:07;;;;;;;24.85;11.80;;;;;;;3.90;63.45;103264.50;4771669;29;20112;-54
2022/02/27 06:24:32;;;;;;;25.58;12.40;;;;;;;3.70;64.17;103265.50;4779317;29;20385;-54
2022/02/27 06:26:58;;;;;;;28.42;12.38;;;;;;;3.89;63.77;103265.28;4761562;29;20053;-53
2022/02/27 06:29:23;;;;;;;34.75;12.40;;;;;;;3.87;63.72;103260.00;4774089;29;20043;-51
2022/02/27 06:31:50;;;;;;;28.70;12.82;;;;;;;3.80;64.01;103260.28;4778496;29;20078;-53
2022/02/27 06:34:16;;;;;;;26.77;12.73;;;;;;;3.81;63.70;103262.09;4774269;29;20382;-51
2022/02/27 06:36:41;;;;;;;31.70;12.68;;;;;;;3.70;64.22;103255.19;4767735;29;20119;-53
2022/02/27 06:39:06;;;;;;;34.17;13.02;;;;;;;3.90;63.96;103249.03;4771762;29;20122;-53
2022/02/27 06:41:32;;;;;;;26.98;12.05;;;;;;;3.82;63.09;103253.56;4774167;29;20042;-55
2022/02/27 06:43:57;;;;;;;27.23;12.18;;;;;;;3.68;64.56;103254.16;4771294;29;20137;-54
2022/02/27 06:46:23;;;;;;;28.67;12.32;;;;;;;3.68;64.27;103257.66;4773488;29;20568;-54
2022/02/27 06:48:48;;;;;;;30.15;12.10;;;;;;;3.89;63.66;103258.44;4777437;29;20529;-56
2022/02/27 06:51:14;;;;;;;26.85;11.38;;;;;;;4.01;62.97;103256.81;4762971;29;20509;-57
2022/02/27 06:53:39;;;;;;;22.55;11.30;;;;;;;4.01;63.23;103261.06;4766981;29;20432;-55
2022/02/27 06:56:05;;;;;;;25.20;11.65;;;;;;;3.84;63.43;103272.63;4767879;29;20383;-53
2022/02/27 06:58:31;;;;;;;21.52;11.32;;;;;;;4.06;63.54;103267.50;4776087;29;20049;-50
2022/02/27 07:00:56;;;;;;;27.42;11.38;;;;;;;3.98;63.22;103264.31;4774394;29;20058;-53
2022/02/27 07:03:22;;;;;;;27.58;11.25;;;;;;;4.01;62.67;103259.41;4762815;29;20116;-53
2022/02/27 07:05:47;;;;;;;23.48;11.05;;;;;;;4.07;63.31;103264.13;4771798;29;20485;-54
2022/02/27 07:08:12;;;;;;;32.03;11.65;;;;;;;4.23;62.75;103271.38;4772288;29;20051;-56
2022/02/27 07:10:38;;;;;;;30.42;11.50;;;;;;;4.16;63.15;103266.50;4774568;29;20451;-55
2022/02/27 07:13:03;;;;;;;26.48;11.32;;;;;;;4.20;62.17;103272.06;4755353;29;20142;-53
2022/02/27 07:15:29;;;;;;;24.33;11.07;;;;;;;4.24;62.76;103275.75;4771856;29;20051;-52
2022/02/27 07:17:56;;;;;;;26.35;10.60;;;;;;;4.40;62.14;103270.97;4773354;29;20528;-55
2022/02/27 07:20:21;;;;;;;27.92;11.30;;;;;;;4.15;62.79;103262.16;4775441;29;20051;-54
2022/02/27 07:22:47;;;;;;;20.73;10.63;;;;;;;4.41;61.47;103267.59;4775674;29;20082;-54
2022/02/27 07:25:12;;;;;;;27.63;10.52;;;;;;;4.56;61.53;103257.56;4769969;29;20047;-54
2022/02/27 07:27:38;;;;;;;29.38;11.00;;;;;;;4.54;61.49;103264.28;4769183;29;20061;-55
2022/02/27 07:30:05;;;;;;;28.60;11.25;;;;;;;4.63;61.73;103259.81;4776636;29;20515;-54
2022/02/27 07:32:31;;;;;;;24.10;10.98;;;;;;;4.61;61.67;103266.53;4763537;29;20053;-54
2022/02/27 07:34:58;;;;;;;19.33;9.95;;;;;;;4.66;61.38;103260.03;4768758;29;20655;-52
2022/02/27 07:37:24;;;;;;;20.45;10.55;;;;;;;4.71;61.10;103264.75;4766702;29;20109;-52
2022/02/27 07:39:49;;;;;;;25.73;10.32;;;;;;;4.78;60.76;103268.69;4770725;29;20177;-53
2022/02/27 07:42:14;;;;;;;25.05;10.85;;;;;;;4.86;61.06;103263.34;4766740;29;20070;-53
2022/02/27 07:44:40;;;;;;;23.23;10.80;;;;;;;4.58;61.63;103261.13;4772444;29;20067;-55
2022/02/27 07:47:10;;;;;;;22.38;10.07;;;;;;;4.86;60.92;103273.66;4767118;29;20151;-54
2022/02/27 07:49:35;;;;;;;23.02;10.15;;;;;;;4.93;60.87;103274.13;4772124;29;20086;-55
2022/02/27 07:52:01;;;;;;;25.67;10.25;;;;;;;4.86;61.22;103280.53;4772912;29;20051;-54
2022/02/27 07:54:26;;;;;;;20.83;10.40;;;;;;;4.97;60.31;103278.72;4769095;29;21302;-55
2022/02/27 07:56:52;;;;;;;25.98;10.43;;;;;;;5.12;60.48;103272.13;4772944;29;20708;-54
2022/02/27 07:59:17;;;;;;;23.92;10.07;;;;;;;5.22;60.28;103283.25;4770057;29;20978;-56
2022/02/27 08:01:43;;;;;;;22.50;10.05;;;;;;;5.24;60.04;103286.84;4772390;29;20034;-53
2022/02/27 08:04:08;;;;;;;23.48;9.77;;;;;;;5.23;59.97;103278.97;4774967;29;20939;-55
2022/02/27 08:06:35;;;;;;;20.85;9.60;;;;;;;5.38;59.81;103284.34;4769854;29;20526;-53
2022/02/27 08:09:05;;;;;;;20.15;9.32;;;;;;;5.42;59.67;103274.34;4772773;29;20356;-53
2022/02/27 08:11:31;;;;;;;25.80;10.02;;;;;;;5.49;59.14;103281.72;4777458;29;20074;-52
2022/02/27 08:13:57;;;;;;;26.60;10.15;;;;;;;5.61;59.39;103272.25;4766399;29;20137;-54
2022/02/27 08:16:23;;;;;;;21.50;9.43;;;;;;;5.77;58.66;103275.97;4771502;29;21038;-54
2022/02/27 08:18:48;;;;;;;20.95;9.73;;;;;;;5.70;58.35;103272.94;4776311;29;20104;-54
2022/02/27 08:21:14;;;;;;;20.65;9.48;;;;;;;6.02;57.38;103264.88;4758562;29;20344;-52
2022/02/27 08:23:40;;;;;;;25.08;10.00;;;;;;;5.79;58.19;103267.53;4775617;29;20283;-50
2022/02/27 08:26:05;;;;;;;23.50;10.05;;;;;;;5.82;58.25;103265.13;4771698;29;20130;-54
2022/02/27 08:28:31;;;;;;;21.35;9.25;;;;;;;5.75;58.54;103267.19;4772313;29;20063;-54
2022/02/27 08:30:58;;;;;;;21.90;9.40;;;;;;;5.99;58.11;103263.75;4766468;29;20170;-53
2022/02/27 08:33:24;;;;;;;21.83;9.45;;;;;;;6.16;57.42;103263.22;4771957;29;20058;-52
2022/02/27 08:35:50;;;;;;;19.10;9.18;;;;;;;5.98;58.61;103278.38;4778054;29;20107;-53
2022/02/27 08:38:15;;;;;;;20.27;9.43;;;;;;;6.03;58.24;103266.69;4777095;29;20090;-53
2022/02/27 08:40:41;;;;;;;19.95;8.68;;;;;;;6.22;57.31;103265.38;4773730;29;20512;-53
2022/02/27 08:43:06;;;;;;;21.33;8.63;;;;;;;6.11;57.78;103268.09;4767793;29;20324;-50
2022/02/27 08:45:32;;;;;;;18.73;8.20;;;;;;;6.22;57.69;103267.97;4769369;29;20055;-55
2022/02/27 08:47:57;;;;;;;23.92;9.00;;;;;;;6.55;57.09;103259.88;4777154;29;20043;-54
2022/02/27 08:50:23;;;;;;;18.23;8.18;;;;;;;6.64;56.61;103259.63;4779050;29;20467;-53
2022/02/27 08:52:49;;;;;;;23.13;8.38;;;;;;;6.72;56.31;103266.19;4776985;29;20351;-54
2022/02/27 08:55:15;;;;;;;19.90;8.50;;;;;;;6.72;56.59;103261.00;4771998;29;20125;-53
2022/02/27 08:57:42;;;;;;;20.95;8.48;;;;;;;6.70;56.62;103260.03;4773419;29;20051;-51
2022/02/27 09:00:10;;;;;;;19.77;8.15;;;;;;;6.82;55.99;103259.16;4772928;29;20222;-51
2022/02/27 09:02:36;;;;;;;15.90;7.78;;;;;;;6.69;56.41;103266.91;4777945;29;20096;-53
2022/02/27 09:05:02;;;;;;;17.45;7.43;;;;;;;6.74;56.02;103267.19;4759068;29;20038;-58
2022/02/27 09:07:28;;;;;;;16.25;7.50;;;;;;;6.93;55.62;103258.16;4770238;29;20077;-54
2022/02/27 09:09:53;;;;;;;16.08;6.93;;;;;;;7.02;55.09;103265.63;4775765;29;20584;-52
2022/02/27 09:12:18;;;;;;;15.20;6.80;;;;;;;6.88;55.83;103259.56;4774921;29;20499;-54
2022/02/27 09:14:45;;;;;;;17.70;7.28;;;;;;;7.35;54.53;103259.16;4777941;29;20058;-54
2022/02/27 09:17:12;;;;;;;16.17;6.70;;;;;;;7.71;53.89;103252.81;4765487;29;20051;-52
2022/02/27 09:19:37;;;;;;;15.73;6.47;;;;;;;7.77;53.61;103255.78;4775562;29;20143;-51
2022/02/27 09:22:03;;;;;;;14.82;6.47;;;;;;;7.97;53.88;103257.03;4777974;29;21269;-54
2022/02/27 09:24:28;;;;;;;15.32;5.80;;;;;;;7.66;52.64;103249.03;4774061;29;20077;-53
2022/02/27 09:26:54;;;;;;;17.05;6.43;;;;;;;7.91;52.84;103251.44;4778153;29;20034;-51
2022/02/27 09:29:19;;;;;;;15.63;6.40;;;;;;;8.17;52.90;103250.47;4770803;29;20066;-53
2022/02/27 09:31:44;;;;;;;14.07;6.03;;;;;;;8.37;52.18;103252.56;4776675;29;20179;-54
2022/02/27 09:34:11;;;;;;;16.10;6.00;;;;;;;7.95;52.58;103249.13;4791787;29;20103;-52
2022/02/27 09:36:37;;;;;;;16.38;6.45;;;;;;;8.11;52.33;103262.25;4773840;29;20046;-52
2022/02/27 09:39:04;;;;;;;12.60;5.63;;;;;;;7.99;51.50;103245.91;4768656;29;20435;-53
2022/02/27 09:41:41;;;;;;;21.08;5.85;;;;;;;7.88;51.63;103248.66;4773273;29;20069;-53
2022/02/27 09:44:09;;;;;;;14.35;5.63;;;;;;;7.79;51.31;103230.81;4770652;29;20057;-53
2022/02/27 09:46:36;;;;;;;12.38;5.60;;;;;;;8.22;51.59;103236.03;4775468;29;20513;-54
2022/02/27 09:49:03;;;;;;;15.20;6.05;;;;;;;8.31;52.47;103241.81;4766295;29;20043;-54
2022/02/27 09:51:28;;;;;;;17.00;5.95;;;;;;;8.55;51.09;103236.38;4775565;29;20132;-53
2022/02/27 09:53:53;;;;;;;12.57;5.70;;;;;;;8.67;51.01;103241.38;4772401;29;20527;-51
2022/02/27 09:56:20;;;;;;;14.73;5.80;;;;;;;8.46;51.02;103235.84;4771274;29;20130;-53
2022/02/27 09:58:45;;;;;;;16.10;5.57;;;;;;;8.59;50.15;103240.06;4776882;29;20126;-50
2022/02/27 10:01:12;;;;;;;14.00;5.82;;;;;;;8.61;50.24;103245.34;4768027;29;20046;-55
2022/02/27 10:03:38;;;;;;;11.60;5.85;;;;;;;8.82;50.32;103239.69;4775863;29;20047;-51
2022/02/27 10:06:06;;;;;;;15.00;5.50;;;;;;;8.62;49.42;103239.34;4774494;29;20810;-54
2022/02/27 10:08:58;;;;;;;12.57;5.45;;;;;;;8.62;50.12;103232.44;4778013;29;20736;-53
2022/02/27 10:11:24;;;;;;;14.50;5.35;;;;;;;8.58;49.41;103239.97;4768258;29;20054;-50
2022/02/27 10:13:54;;;;;;;13.95;5.70;;;;;;;8.58;49.46;103230.47;4771752;29;20138;-54
2022/02/27 10:16:21;;;;;;;15.23;5.40;;;;;;;8.75;49.02;103237.53;4772934;29;20055;-52
2022/02/27 10:18:55;;;;;;;11.38;5.15;;;;;;;8.79;48.74;103228.19;4774594;29;20046;-50
2022/02/27 10:21:34;;;;;;;15.70;5.60;;;;;;;9.01;48.22;103218.25;4767346;29;20567;-54
2022/02/27 10:24:06;;;;;;;10.52;5.10;;;;;;;8.38;48.68;103226.69;4767901;29;20103;-54
2022/02/27 10:26:33;;;;;;;20.30;5.53;;;;;;;8.92;48.13;103220.31;4773417;29;20433;-55
2022/02/27 10:29:12;;;;;;;14.45;5.50;;;;;;;9.04;48.45;103221.00;4773819;29;20431;-54
2022/02/27 10:31:39;;;;;;;12.55;5.63;;;;;;;9.07;47.79;103209.88;4766138;29;20152;-50
2022/02/27 10:34:22;;;;;;;12.02;5.63;;;;;;;8.96;47.52;103215.34;4773207;29;20310;-51
2022/02/27 10:36:59;;;;;;;15.15;5.55;;;;;;;8.89;46.48;103208.03;4777492;29;20043;-53
2022/02/27 10:39:48;;;;;;;10.52;5.07;;;;;;;8.91;46.28;103202.91;4775302;29;20059;-53
2022/02/27 10:42:28;;;;;;;10.05;4.50;;;;;;;9.15;45.92;103206.03;4776408;29;20046;-52
2022/02/27 10:45:00;;;;;;;8.88;4.50;;;;;;;9.33;45.64;103204.44;4769400;29;21375;-55
2022/02/27 10:47:27;;;;;;;12.52;4.95;;;;;;;9.21;45.98;103202.03;4761889;29;20074;-54
2022/02/27 10:49:55;;;;;;;11.85;4.97;;;;;;;9.11;46.04;103199.72;4768679;29;20551;-59
2022/02/27 10:52:23;;;;;;;10.35;4.93;;;;;;;8.95;46.32;103200.59;4769221;29;20070;-52
2022/02/27 10:54:58;;;;;;;14.40;7.10;;;;;;;8.94;44.94;103184.88;4769539;29;20166;-51
2022/02/27 10:57:30;;;;;;;11.85;4.70;;;;;;;9.16;44.73;103197.38;4762876;29;20522;-50
2022/02/27 11:00:00;;;;;;;8.50;4.15;;;;;;;8.87;44.45;103183.63;4769066;29;20060;-53
2022/02/27 11:02:28;;;;;;;10.23;4.53;;;;;;;9.01;44.49;103192.22;4791874;29;20070;-52
2022/02/27 11:04:58;;;;;;;10.30;4.55;;;;;;;9.10;44.21;103181.41;4745141;29;20057;-52
2022/02/27 11:07:25;;;;;;;8.98;4.25;;;;;;;9.32;44.66;103184.41;4773357;29;20487;-53
2022/02/27 11:09:50;;;;;;;16.35;4.78;;;;;;;9.49;44.53;103183.63;4774219;29;20385;-52
2022/02/27 11:12:16;;;;;;;8.90;4.13;;;;;;;9.15;44.63;103191.28;4774542;29;20519;-55
2022/02/27 11:14:46;;;;;;;10.73;4.53;;;;;;;9.61;44.58;103180.78;4774221;29;20585;-54